createdAt,value
2024-05-09T00:01:30.710Z,8.00
2024-05-09T00:04:02.618Z,10.40
2024-05-09T00:06:33.049Z,9.10
2024-05-09T00:09:04.691Z,10.70
2024-05-09T00:11:35.126Z,9.40
2024-05-09T00:14:07.074Z,7.50
2024-05-09T00:16:37.597Z,9.20
2024-05-09T00:19:09.145Z,8.80
2024-05-09T00:21:45.228Z,8.60
2024-05-09T00:24:16.975Z,8.40
2024-05-09T00:26:47.604Z,9.20
2024-05-09T00:29:19.218Z,8.70
2024-05-09T00:31:49.756Z,8.20
2024-05-09T00:34:21.594Z,8.30
2024-05-09T00:36:52.176Z,8.60
2024-05-09T00:39:23.832Z,8.10
2024-05-09T00:41:54.150Z,10.50
2024-05-09T00:44:25.939Z,8.40
2024-05-09T00:46:57.752Z,7.80
2024-05-09T00:49:29.605Z,8.00
2024-05-09T00:52:00.262Z,8.00
2024-05-09T00:54:31.921Z,10.70
2024-05-09T00:57:03.583Z,8.30
2024-05-09T00:59:35.449Z,7.10
2024-05-09T01:02:05.805Z,7.50
2024-05-09T01:04:37.686Z,8.50
2024-05-09T01:07:08.654Z,8.60
2024-05-09T01:09:40.101Z,7.50
2024-05-09T01:12:10.745Z,8.60
2024-05-09T01:14:42.484Z,8.70
2024-05-09T01:17:12.936Z,11.50
2024-05-09T01:19:44.765Z,10.40
2024-05-09T01:22:15.205Z,10.30
2024-05-09T01:24:46.973Z,10.00
2024-05-09T01:27:17.294Z,11.70
2024-05-09T01:29:49.662Z,9.50
2024-05-09T01:32:19.914Z,8.10
2024-05-09T01:34:51.816Z,8.90
2024-05-09T01:37:22.282Z,8.50
2024-05-09T01:39:53.926Z,9.10
2024-05-09T01:42:24.262Z,7.00
2024-05-09T01:44:56.011Z,8.70
2024-05-09T01:47:26.580Z,8.60
2024-05-09T01:49:58.738Z,8.40
2024-05-09T01:52:29.124Z,7.60
2024-05-09T01:55:04.522Z,8.70
2024-05-09T01:57:38.486Z,9.00
2024-05-09T02:00:10.384Z,7.50
2024-05-09T02:02:46.545Z,10.70
2024-05-09T02:05:19.571Z,7.30
2024-05-09T02:10:26.491Z,7.30
2024-05-09T02:13:03.983Z,7.00
2024-05-09T02:15:34.415Z,8.00
2024-05-09T02:18:07.040Z,8.30
2024-05-09T02:23:13.927Z,6.90
2024-05-09T02:25:44.672Z,7.70
2024-05-09T02:28:16.488Z,7.30
2024-05-09T02:30:46.716Z,9.30
2024-05-09T02:33:18.557Z,7.50
2024-05-09T02:35:49.096Z,9.30
2024-05-09T02:38:20.686Z,10.20
2024-05-09T02:40:51.431Z,9.60
2024-05-09T02:43:23.123Z,9.40
2024-05-09T02:45:53.442Z,7.90
2024-05-09T02:48:25.243Z,9.20
2024-05-09T02:50:55.550Z,7.20
2024-05-09T02:53:27.470Z,7.50
2024-05-09T02:55:57.639Z,6.50
2024-05-09T02:58:29.265Z,8.40
2024-05-09T03:00:59.613Z,9.00
2024-05-09T03:03:31.746Z,8.10
2024-05-09T03:06:02.584Z,8.30
2024-05-09T03:08:34.153Z,7.30
2024-05-09T03:11:05.143Z,10.50
2024-05-09T03:13:41.461Z,7.90
2024-05-09T03:16:13.009Z,8.30
2024-05-09T03:18:43.425Z,9.60
2024-05-09T03:21:15.147Z,10.40
2024-05-09T03:23:45.741Z,8.50
2024-05-09T03:26:18.443Z,6.70
2024-05-09T03:28:48.621Z,7.70
2024-05-09T03:31:20.388Z,7.70
2024-05-09T03:33:50.861Z,6.60
2024-05-09T03:36:22.660Z,10.40
2024-05-09T03:38:52.988Z,10.20
2024-05-09T03:41:25.640Z,8.00
2024-05-09T03:43:55.927Z,9.40
2024-05-09T03:46:27.554Z,9.90
2024-05-09T03:48:58.033Z,11.80
2024-05-09T03:51:29.728Z,9.40
2024-05-09T03:54:00.966Z,9.10
2024-05-09T03:56:32.677Z,8.70
2024-05-09T03:59:03.176Z,8.80
2024-05-09T04:01:34.879Z,10.00
2024-05-09T04:04:05.562Z,12.00
2024-05-09T04:06:37.289Z,11.00
2024-05-09T04:09:07.523Z,8.50
2024-05-09T04:11:39.510Z,10.20
2024-05-09T04:14:09.920Z,12.40
2024-05-09T04:16:41.678Z,10.30
2024-05-09T04:19:12.155Z,12.30
2024-05-09T04:21:44.003Z,12.30
2024-05-09T04:24:14.383Z,8.60
2024-05-09T04:26:46.757Z,13.10
2024-05-09T04:29:17.262Z,6.90
2024-05-09T04:31:49.116Z,8.60
2024-05-09T04:34:19.602Z,9.90
2024-05-09T04:36:51.645Z,8.70
2024-05-09T04:39:21.865Z,8.60
2024-05-09T04:41:53.602Z,8.70
2024-05-09T04:44:24.079Z,8.30
2024-05-09T04:46:55.717Z,8.90
2024-05-09T04:49:26.302Z,9.80
2024-05-09T04:51:58.085Z,7.50
2024-05-09T04:54:35.797Z,6.90
2024-05-09T04:57:08.468Z,11.10
2024-05-09T04:59:38.668Z,9.00
2024-05-09T05:02:10.413Z,9.10
2024-05-09T05:04:41.109Z,10.00
2024-05-09T05:07:13.040Z,8.80
2024-05-09T05:09:43.654Z,17.10
2024-05-09T05:12:33.991Z,7.80
2024-05-09T05:15:06.220Z,9.40
2024-05-09T05:17:36.815Z,10.40
2024-05-09T05:20:12.695Z,18.50
2024-05-09T05:22:48.000Z,16.00
2024-05-09T05:27:50.236Z,14.60
2024-05-09T05:30:25.257Z,11.30
2024-05-09T05:33:01.133Z,10.80
2024-05-09T05:35:31.813Z,11.40
2024-05-09T05:38:04.052Z,10.70
2024-05-09T05:40:37.216Z,11.00
2024-05-09T05:43:16.228Z,8.00
2024-05-09T05:45:48.318Z,10.70
2024-05-09T05:48:19.079Z,9.50
2024-05-09T05:50:50.838Z,10.70
2024-05-09T05:53:21.447Z,10.10
2024-05-09T05:55:53.337Z,11.60
2024-05-09T05:58:23.825Z,10.80
2024-05-09T06:00:55.510Z,9.60
2024-05-09T06:03:26.192Z,10.90
2024-05-09T06:06:01.838Z,11.40
2024-05-09T06:08:33.668Z,11.20
2024-05-09T06:11:04.521Z,8.90
2024-05-09T06:13:36.002Z,11.50
2024-05-09T06:16:06.820Z,13.30
2024-05-09T06:18:38.683Z,7.70
2024-05-09T06:21:09.123Z,9.90
2024-05-09T06:23:48.504Z,9.70
2024-05-09T06:26:20.593Z,9.00
2024-05-09T06:28:50.988Z,10.40
2024-05-09T06:31:22.717Z,10.30
2024-05-09T06:33:53.146Z,9.80
2024-05-09T06:36:24.913Z,10.20
2024-05-09T06:38:55.423Z,10.00
2024-05-09T06:41:27.269Z,8.90
2024-05-09T06:43:57.762Z,9.00
2024-05-09T06:46:29.784Z,12.00
2024-05-09T06:49:05.919Z,10.60
2024-05-09T06:51:43.300Z,8.50
2024-05-09T06:54:15.192Z,8.90
2024-05-09T06:56:45.504Z,13.60
2024-05-09T06:59:17.172Z,11.10
2024-05-09T07:01:47.660Z,12.90
2024-05-09T07:04:19.469Z,12.80
2024-05-09T07:06:49.889Z,10.20
2024-05-09T07:09:21.435Z,10.00
2024-05-09T07:11:52.055Z,10.60
2024-05-09T07:14:24.099Z,10.60
2024-05-09T07:16:54.755Z,12.10
2024-05-09T07:19:26.478Z,13.70
2024-05-09T07:21:58.171Z,8.40
2024-05-09T07:24:29.721Z,10.50
2024-05-09T07:27:00.044Z,9.50
2024-05-09T07:29:32.975Z,11.40
2024-05-09T07:32:06.710Z,13.90
2024-05-09T07:34:38.377Z,11.90
2024-05-09T07:37:12.855Z,9.60
2024-05-09T07:39:44.479Z,12.30
2024-05-09T07:42:14.798Z,12.20
2024-05-09T07:44:46.353Z,9.30
2024-05-09T07:48:28.921Z,13.30
2024-05-09T07:53:34.356Z,11.40
2024-05-09T07:55:35.905Z,10.70
2024-05-09T07:58:06.338Z,10.40
2024-05-09T08:00:38.624Z,8.40
2024-05-09T08:03:10.609Z,9.90
2024-05-09T08:05:42.327Z,10.80
2024-05-09T08:08:12.835Z,8.90
2024-05-09T08:10:44.402Z,10.30
2024-05-09T08:13:14.997Z,9.90
2024-05-09T08:15:46.907Z,11.70
2024-05-09T08:18:17.347Z,9.10
2024-05-09T08:20:49.964Z,8.40
2024-05-09T08:23:20.189Z,9.10
2024-05-09T08:25:53.117Z,9.30
2024-05-09T08:28:23.641Z,11.10
2024-05-09T08:30:55.312Z,8.50
2024-05-09T08:33:26.145Z,12.60
2024-05-09T08:35:58.574Z,8.80
2024-05-09T08:38:28.889Z,11.50
2024-05-09T08:41:02.282Z,8.40
2024-05-09T08:43:32.549Z,11.10
2024-05-09T08:46:04.894Z,8.00
2024-05-09T08:48:36.814Z,12.20
2024-05-09T08:51:08.398Z,8.50
2024-05-09T08:53:39.035Z,7.90
2024-05-09T08:56:10.514Z,9.60
2024-05-09T08:58:41.006Z,9.50
2024-05-09T09:01:14.376Z,7.20
2024-05-09T09:03:45.247Z,8.90
2024-05-09T09:06:18.534Z,9.90
2024-05-09T09:08:48.960Z,8.90
2024-05-09T09:11:20.650Z,7.90
2024-05-09T09:13:51.652Z,8.50
2024-05-09T09:16:35.628Z,7.60
2024-05-09T09:19:07.251Z,11.20
2024-05-09T09:21:37.833Z,8.40
2024-05-09T09:24:10.464Z,8.80
2024-05-09T09:26:41.172Z,7.40
2024-05-09T09:29:12.850Z,10.60
2024-05-09T09:31:43.172Z,8.00
2024-05-09T09:34:14.925Z,7.80
2024-05-09T09:36:45.739Z,8.40
2024-05-09T09:39:17.316Z,6.40
2024-05-09T09:41:47.640Z,10.30
2024-05-09T09:44:19.199Z,8.00
2024-05-09T09:46:50.378Z,6.50
2024-05-09T09:49:26.757Z,7.30
2024-05-09T09:51:58.602Z,9.30
2024-05-09T09:54:29.491Z,7.70
2024-05-09T09:57:01.176Z,8.50
2024-05-09T09:59:31.685Z,8.30
2024-05-09T10:02:03.555Z,7.20
2024-05-09T10:04:34.097Z,6.40
2024-05-09T10:07:08.690Z,7.20
2024-05-09T10:09:39.060Z,7.20
2024-05-09T10:12:11.815Z,6.50
2024-05-09T10:14:48.442Z,5.80
2024-05-09T10:17:20.194Z,6.90
2024-05-09T10:19:51.088Z,5.20
2024-05-09T10:25:25.218Z,5.90
2024-05-09T10:27:56.168Z,7.30
2024-05-09T10:30:34.076Z,5.60
2024-05-09T10:33:11.138Z,6.80
2024-05-09T10:35:51.509Z,7.30
2024-05-09T10:38:23.248Z,6.20
2024-05-09T10:43:28.798Z,6.90
2024-05-09T10:45:59.654Z,8.50
2024-05-09T10:48:31.212Z,6.00
2024-05-09T10:51:02.037Z,5.90
2024-05-09T10:53:43.443Z,7.20
2024-05-09T10:56:15.300Z,4.60
2024-05-09T10:58:45.541Z,4.90
2024-05-09T11:01:17.251Z,7.00
2024-05-09T11:03:48.668Z,5.60
2024-05-09T11:06:20.576Z,6.40
2024-05-09T11:08:50.912Z,6.70
2024-05-09T11:11:22.670Z,6.60
2024-05-09T11:13:53.040Z,6.00
2024-05-09T11:16:24.771Z,5.70
2024-05-09T11:18:56.772Z,6.30
2024-05-09T11:21:29.098Z,6.10
2024-05-09T11:23:59.339Z,5.90
2024-05-09T11:26:34.228Z,4.60
2024-05-09T11:29:06.910Z,7.20
2024-05-09T11:31:49.487Z,5.00
2024-05-09T11:34:21.237Z,6.20
2024-05-09T11:36:51.651Z,7.00
2024-05-09T11:39:23.659Z,5.80
2024-05-09T11:41:53.987Z,5.00
2024-05-09T11:44:26.878Z,7.70
2024-05-09T11:46:57.307Z,7.00
2024-05-09T11:49:29.192Z,6.20
2024-05-09T11:51:59.684Z,6.50
2024-05-09T11:54:31.576Z,5.40
2024-05-09T11:57:01.888Z,5.70
2024-05-09T11:59:33.641Z,7.20
2024-05-09T12:02:04.653Z,5.70
2024-05-09T12:04:36.466Z,6.30
2024-05-09T12:07:09.148Z,5.20
2024-05-09T12:09:42.147Z,4.30
2024-05-09T12:12:13.651Z,6.90
2024-05-09T12:14:45.203Z,5.80
2024-05-09T12:17:15.682Z,7.40
2024-05-09T12:19:47.637Z,5.30
2024-05-09T12:22:18.286Z,6.80
2024-05-09T12:24:50.020Z,9.70
2024-05-09T12:27:20.698Z,9.80
2024-05-09T12:29:52.254Z,7.30
2024-05-09T12:32:22.742Z,6.20
2024-05-09T12:34:54.445Z,6.00
2024-05-09T12:37:24.964Z,7.20
2024-05-09T12:39:57.288Z,5.60
2024-05-09T12:42:29.088Z,5.90
2024-05-09T12:45:01.475Z,6.70
2024-05-09T12:47:31.901Z,5.10
2024-05-09T12:50:06.458Z,6.60
2024-05-09T12:52:40.136Z,7.90
2024-05-09T12:55:11.042Z,5.40
2024-05-09T12:57:42.642Z,6.20
2024-05-09T13:00:23.254Z,6.10
2024-05-09T13:02:59.743Z,7.50
2024-05-09T13:05:30.612Z,8.40
2024-05-09T13:08:03.649Z,5.00
2024-05-09T13:10:35.220Z,8.80
2024-05-09T13:13:06.842Z,6.50
2024-05-09T13:15:37.578Z,6.20
2024-05-09T13:18:09.447Z,5.40
2024-05-09T13:20:39.942Z,7.30
2024-05-09T13:23:11.682Z,6.70
2024-05-09T13:25:42.306Z,9.10
2024-05-09T13:28:13.992Z,7.60
2024-05-09T13:30:44.417Z,5.20
2024-05-09T13:33:16.265Z,6.10
2024-05-09T13:35:50.157Z,6.60
2024-05-09T13:38:22.841Z,7.00
2024-05-09T13:40:53.303Z,5.00
2024-05-09T13:43:25.827Z,7.30
2024-05-09T13:45:57.612Z,5.30
2024-05-09T13:48:29.262Z,6.70
2024-05-09T13:50:59.790Z,6.10
2024-05-09T13:53:31.537Z,6.80
2024-05-09T13:56:01.864Z,8.60
2024-05-09T13:58:33.607Z,7.40
2024-05-09T14:01:04.331Z,6.40
2024-05-09T14:03:36.338Z,5.60
2024-05-09T14:06:09.405Z,6.50
2024-05-09T14:08:43.010Z,6.30
2024-05-09T14:11:13.423Z,5.20
2024-05-09T14:13:45.290Z,5.00
2024-05-09T14:16:15.925Z,5.50
2024-05-09T14:18:47.583Z,5.10
2024-05-09T14:21:18.007Z,5.10
2024-05-09T14:23:49.777Z,5.00
2024-05-09T14:26:20.290Z,4.90
2024-05-09T14:28:51.939Z,5.30
2024-05-09T14:31:22.529Z,7.00
2024-05-09T14:33:54.647Z,5.60
2024-05-09T14:36:25.064Z,4.80
2024-05-09T14:38:56.621Z,4.00
2024-05-09T14:41:26.963Z,5.60
2024-05-09T14:43:58.803Z,5.00
2024-05-09T14:46:29.338Z,6.80
2024-05-09T14:49:00.989Z,5.20
2024-05-09T14:51:31.558Z,5.00
2024-05-09T14:54:03.702Z,6.00
2024-05-09T14:56:34.012Z,5.70
2024-05-09T14:59:06.998Z,5.00
2024-05-09T15:01:37.321Z,5.60
2024-05-09T15:04:09.178Z,4.80
2024-05-09T15:06:41.104Z,5.30
2024-05-09T15:09:12.804Z,5.10
2024-05-09T15:11:44.012Z,4.30
2024-05-09T15:14:16.103Z,4.20
2024-05-09T15:16:46.238Z,8.40
2024-05-09T15:19:18.255Z,4.20
2024-05-09T15:21:48.712Z,4.40
2024-05-09T15:24:20.474Z,4.20
2024-05-09T15:26:51.424Z,4.00
2024-05-09T15:29:23.075Z,4.00
2024-05-09T15:31:53.647Z,3.80
2024-05-09T15:34:25.406Z,5.30
2024-05-09T15:36:57.626Z,3.00
2024-05-09T15:39:30.516Z,4.80
2024-05-09T15:42:02.675Z,4.20
2024-05-09T15:44:35.370Z,3.30
2024-05-09T15:47:05.780Z,4.50
2024-05-09T15:49:37.583Z,4.00
2024-05-09T15:52:08.209Z,6.00
2024-05-09T15:54:40.070Z,3.70
2024-05-09T15:57:10.458Z,3.00
2024-05-09T15:59:42.219Z,5.20
2024-05-09T16:02:12.901Z,4.00
2024-05-09T16:04:44.868Z,3.00
2024-05-09T16:09:47.168Z,3.40
2024-05-09T16:14:50.841Z,3.50
2024-05-09T16:17:21.111Z,3.90
2024-05-09T16:19:52.902Z,5.90
2024-05-09T16:22:23.669Z,6.40
2024-05-09T16:24:55.207Z,4.00
2024-05-09T16:27:26.339Z,5.80
2024-05-09T16:30:03.981Z,5.10
2024-05-09T16:32:37.016Z,3.90
2024-05-09T16:35:07.446Z,8.50
2024-05-09T16:37:38.989Z,11.40
2024-05-09T16:40:21.683Z,12.50
2024-05-09T16:43:03.430Z,9.20
2024-05-09T16:45:34.080Z,11.50
2024-05-09T16:48:07.161Z,5.70
2024-05-09T16:50:38.063Z,5.00
2024-05-09T16:53:09.541Z,3.90
2024-05-09T16:55:40.239Z,3.90
2024-05-09T16:58:12.687Z,3.10
2024-05-09T17:00:44.252Z,4.90
2024-05-09T17:03:17.385Z,3.80
2024-05-09T17:05:48.431Z,5.30
2024-05-09T17:08:20.461Z,3.20
2024-05-09T17:10:51.171Z,5.50
2024-05-09T17:13:23.427Z,5.70
2024-05-09T17:15:54.065Z,4.50
2024-05-09T17:18:26.294Z,5.20
2024-05-09T17:25:58.363Z,5.80
2024-05-09T17:28:29.961Z,3.50
2024-05-09T17:31:00.365Z,6.50
2024-05-09T17:33:32.461Z,5.80
2024-05-09T17:36:02.838Z,6.20
2024-05-09T17:38:34.598Z,5.00
2024-05-09T17:41:05.256Z,3.60
2024-05-09T17:43:37.087Z,4.60
2024-05-09T17:46:08.260Z,6.90
2024-05-09T17:48:39.945Z,6.30
2024-05-09T17:51:10.418Z,3.40
2024-05-09T17:53:42.071Z,4.40
2024-05-09T17:56:12.707Z,6.70
2024-05-09T17:58:44.870Z,6.10
2024-05-09T18:01:15.721Z,6.20
2024-05-09T18:03:48.740Z,6.70
2024-05-09T18:06:19.225Z,5.50
2024-05-09T18:08:50.777Z,7.30
2024-05-09T18:11:21.440Z,9.30
2024-05-09T18:13:54.398Z,6.30
2024-05-09T18:16:24.680Z,6.10
2024-05-09T18:18:56.616Z,10.50
2024-05-09T18:21:27.106Z,9.60
2024-05-09T18:24:00.150Z,8.90
2024-05-09T18:26:30.624Z,10.30
2024-05-09T18:29:02.581Z,6.20
2024-05-09T18:31:32.901Z,147.00
2024-05-09T18:34:05.818Z,269.90
2024-05-09T18:36:36.432Z,232.10
2024-05-09T18:39:07.975Z,187.30
2024-05-09T18:41:38.400Z,207.10
2024-05-09T18:44:09.960Z,114.50
2024-05-09T18:46:40.416Z,60.10
2024-05-09T18:49:12.497Z,38.20
2024-05-09T18:51:43.097Z,54.80
2024-05-09T18:54:15.041Z,55.50
2024-05-09T18:56:45.162Z,42.00
2024-05-09T18:59:16.836Z,38.90
2024-05-09T19:01:47.908Z,16.10
2024-05-09T19:04:19.729Z,18.00
2024-05-09T19:06:50.288Z,9.10
2024-05-09T19:09:22.005Z,5.80
2024-05-09T19:11:52.416Z,6.90
2024-05-09T19:14:25.521Z,8.30
2024-05-09T19:16:55.641Z,6.60
2024-05-09T19:19:28.327Z,7.90
2024-05-09T19:24:30.236Z,10.00
2024-05-09T19:27:01.951Z,11.50
2024-05-09T19:29:33.514Z,6.60
2024-05-09T19:32:04.460Z,6.00
2024-05-09T19:34:36.042Z,6.90
2024-05-09T19:37:06.550Z,5.10
2024-05-09T19:39:38.435Z,6.20
2024-05-09T19:42:08.835Z,5.20
2024-05-09T19:44:40.367Z,6.70
2024-05-09T19:47:10.998Z,5.50
2024-05-09T19:49:42.799Z,5.70
2024-05-09T19:52:13.361Z,6.10
2024-05-09T19:54:49.629Z,5.30
2024-05-09T19:57:21.257Z,5.20
2024-05-09T19:59:51.730Z,5.40
2024-05-09T20:02:23.390Z,4.80
2024-05-09T20:04:54.038Z,4.40
2024-05-09T20:07:25.876Z,5.30
2024-05-09T20:09:56.471Z,5.00
2024-05-09T20:12:28.397Z,7.10
2024-05-09T20:14:59.512Z,5.50
2024-05-09T20:17:31.192Z,6.40
2024-05-09T20:20:01.921Z,5.10
2024-05-09T20:22:34.176Z,5.50
2024-05-09T20:25:05.045Z,6.30
2024-05-09T20:27:36.519Z,6.50
2024-05-09T20:30:12.080Z,5.40
2024-05-09T20:32:46.705Z,5.00
2024-05-09T20:35:17.280Z,6.40
2024-05-09T20:37:48.919Z,4.70
2024-05-09T20:40:26.097Z,5.70
2024-05-09T20:43:04.832Z,5.10
2024-05-09T20:45:35.783Z,6.80
2024-05-09T20:48:09.618Z,6.40
2024-05-09T20:50:42.480Z,5.40
2024-05-09T20:53:15.619Z,7.20
2024-05-09T20:55:47.298Z,6.30
2024-05-09T20:58:18.976Z,11.50
2024-05-09T21:00:49.405Z,15.10
2024-05-09T21:03:20.987Z,15.50
2024-05-09T21:05:51.843Z,12.40
2024-05-09T21:08:23.898Z,12.80
2024-05-09T21:10:54.468Z,11.60
2024-05-09T21:13:26.356Z,10.00
2024-05-09T21:15:56.921Z,9.10
2024-05-09T21:18:28.819Z,15.80
2024-05-09T21:20:59.356Z,13.90
2024-05-09T21:23:31.263Z,17.50
2024-05-09T21:26:01.627Z,10.80
2024-05-09T21:28:33.316Z,8.60
2024-05-09T21:31:04.398Z,12.10
2024-05-09T21:33:37.357Z,13.60
2024-05-09T21:36:09.243Z,16.50
2024-05-09T21:38:41.411Z,13.40
2024-05-09T21:41:12.185Z,12.70
2024-05-09T21:43:43.635Z,10.90
2024-05-09T21:46:13.993Z,12.10
2024-05-09T21:48:46.001Z,12.70
2024-05-09T21:51:16.544Z,9.60
2024-05-09T21:53:48.914Z,9.30
2024-05-09T21:56:19.539Z,11.10
2024-05-09T21:58:50.992Z,14.10
2024-05-09T22:01:22.523Z,8.30
2024-05-09T22:03:54.333Z,9.40
2024-05-09T22:06:24.930Z,10.60
2024-05-09T22:08:56.709Z,11.00
2024-05-09T22:11:27.111Z,10.30
2024-05-09T22:13:59.013Z,8.60
2024-05-09T22:16:29.668Z,7.40
2024-05-09T22:19:01.431Z,6.70
2024-05-09T22:21:31.940Z,7.80
2024-05-09T22:24:03.922Z,9.40
2024-05-09T22:26:36.843Z,8.80
2024-05-09T22:29:08.295Z,8.00
2024-05-09T22:31:38.731Z,8.60
2024-05-09T22:34:10.545Z,9.90
2024-05-09T22:36:41.125Z,12.60
2024-05-09T22:39:12.561Z,7.30
2024-05-09T22:41:43.294Z,11.70
2024-05-09T22:44:15.056Z,8.50
2024-05-09T22:46:45.499Z,12.20
2024-05-09T22:49:17.101Z,9.50
2024-05-09T22:51:47.806Z,9.30
2024-05-09T22:54:19.338Z,9.20
2024-05-09T22:56:49.743Z,10.30
2024-05-09T22:59:21.605Z,7.10
2024-05-09T23:01:52.005Z,8.00
2024-05-09T23:04:24.047Z,10.80
2024-05-09T23:06:54.564Z,7.60
2024-05-09T23:09:26.386Z,9.40
2024-05-09T23:11:56.755Z,8.40
2024-05-09T23:14:28.563Z,5.90
2024-05-09T23:16:58.999Z,7.50
2024-05-09T23:19:31.024Z,7.80
2024-05-09T23:22:01.480Z,10.60
2024-05-09T23:24:35.342Z,8.80
2024-05-09T23:27:05.714Z,14.50
2024-05-09T23:29:37.179Z,7.10
2024-05-09T23:32:09.427Z,9.60
2024-05-09T23:34:40.941Z,9.40
2024-05-09T23:37:11.386Z,9.00
2024-05-09T23:39:43.017Z,11.50
2024-05-09T23:42:13.390Z,12.30
2024-05-09T23:44:45.156Z,11.50
2024-05-09T23:47:15.620Z,15.70
2024-05-09T23:49:47.794Z,9.00
2024-05-09T23:52:18.144Z,11.60
2024-05-09T23:54:49.852Z,13.80
2024-05-09T23:57:20.659Z,13.80
2024-05-09T23:59:52.129Z,9.90
